Main page
METAR-TAF:

METAR-TAF

Airports :

Sumburgh Airport

Sumburgh, Shetland, Scotland

latitude: 59-53N, longitude: 001-18W, elevation: 5 m

Current weather observation

The report was made 15 minutes ago, at 04:20 UTC
Wind 7 kt from the South/Southwest
Temperature 11°C
Humidity 94%
Pressure 1000 hPa
Visibility 10 km or more

METAR: EGPB 160420Z AUTO 20007KT 9999 NCD 11/10 Q1000

Time: 05:35 (04:35 UTC)

Forecast

The report was made 1 hour and 33 minutes ago, at 03:02 UTC
Forecast valid from 16 at 03 UTC to 16 at 12 UTC
Wind 12 kt from the Southwest
Visibility 10 km or more
Few clouds at a height of 3500 ft
Probability 30% :
Temporary
from 16 at 03 UTC to 16 at 06 UTC
Visibility: 9000 m
Broken clouds at a height of 1400 ft

TAF: EGPB 160302Z 1603/1612 22012KT 9999 FEW035 PROB30 TEMPO 1603/1606 9000 BKN014

Weather observations and forecasts of more than 4000 airports (METAR and TAF reports).

The available stations are represented by yellow and red dots on the map.

Hover mouse over dot to see the name of the station.

Then click to see weather observations and forecasts.

To change the map : click on the green buttons with a black cross to zoom in, on the green button with a dash to zoom out, or on the green arrows for adjacent maps.


METAR-TAF: